Argus, California
Current Conditions -  °F | °C
As of 5:56 AM on Monday 24 Nov 2014 (Local Time) from KNID Reporting Station
Clear Clear  
Wind Chill: -2°   Ceiling: Unl
Heat Index:   Visibility: 10mi
Dew Point: -9°   Wind: 6mph
Humidity: 50%   Direction: 190°S
Pressure: 30.3"   Gusts: NA
Location:  35.6496°N, 117.375°W
Report Text: KNID 241356Z 19005KT 10SM CLR 01/M09 A3030 RMK AO2 SLP272 T00061089 $
Loading
Personal Weather Stations






























Interactive Weather Map New forecast layout! Learn more

10-Day Weather Forecast

Advertisements
Track Severe Weather on mobile